sensor_id;sensor_type;location;lat;lon;timestamp;P1;durP1;ratioP1;P2;durP2;ratioP2
6852;SDS011;3465;42.144;24.722;2022-08-21T00:00:50;10.63;;;5.60;;
6852;SDS011;3465;42.144;24.722;2022-08-21T00:03:16;12.60;;;5.15;;
6852;SDS011;3465;42.144;24.722;2022-08-21T00:05:43;14.00;;;5.20;;
6852;SDS011;3465;42.144;24.722;2022-08-21T00:08:12;14.10;;;5.50;;
6852;SDS011;3465;42.144;24.722;2022-08-21T00:10:39;12.07;;;5.07;;
6852;SDS011;3465;42.144;24.722;2022-08-21T00:13:06;12.05;;;5.10;;
6852;SDS011;3465;42.144;24.722;2022-08-21T00:15:32;12.30;;;5.05;;
6852;SDS011;3465;42.144;24.722;2022-08-21T00:17:59;13.13;;;5.20;;
6852;SDS011;3465;42.144;24.722;2022-08-21T00:20:25;16.15;;;5.28;;
6852;SDS011;3465;42.144;24.722;2022-08-21T00:22:51;12.13;;;5.25;;
6852;SDS011;3465;42.144;24.722;2022-08-21T00:25:16;10.55;;;5.10;;
6852;SDS011;3465;42.144;24.722;2022-08-21T00:27:43;13.25;;;5.15;;
6852;SDS011;3465;42.144;24.722;2022-08-21T00:30:09;15.77;;;5.07;;
6852;SDS011;3465;42.144;24.722;2022-08-21T00:32:37;13.52;;;5.30;;
6852;SDS011;3465;42.144;24.722;2022-08-21T00:35:05;12.70;;;4.90;;
6852;SDS011;3465;42.144;24.722;2022-08-21T00:37:32;15.18;;;5.20;;
6852;SDS011;3465;42.144;24.722;2022-08-21T00:39:58;16.00;;;5.13;;
6852;SDS011;3465;42.144;24.722;2022-08-21T00:42:23;13.43;;;5.13;;
6852;SDS011;3465;42.144;24.722;2022-08-21T00:44:49;16.02;;;5.70;;
6852;SDS011;3465;42.144;24.722;2022-08-21T00:47:16;10.70;;;5.28;;
6852;SDS011;3465;42.144;24.722;2022-08-21T00:49:45;11.90;;;5.30;;
6852;SDS011;3465;42.144;24.722;2022-08-21T00:52:12;12.82;;;5.00;;
6852;SDS011;3465;42.144;24.722;2022-08-21T00:54:42;13.55;;;5.30;;
6852;SDS011;3465;42.144;24.722;2022-08-21T00:57:11;10.50;;;4.97;;
6852;SDS011;3465;42.144;24.722;2022-08-21T00:59:41;13.45;;;5.30;;
6852;SDS011;3465;42.144;24.722;2022-08-21T01:02:10;9.48;;;5.28;;
6852;SDS011;3465;42.144;24.722;2022-08-21T01:04:37;13.73;;;5.30;;
6852;SDS011;3465;42.144;24.722;2022-08-21T01:07:03;15.27;;;5.05;;
6852;SDS011;3465;42.144;24.722;2022-08-21T01:09:29;14.60;;;5.10;;
6852;SDS011;3465;42.144;24.722;2022-08-21T01:11:54;10.07;;;4.32;;
6852;SDS011;3465;42.144;24.722;2022-08-21T01:14:20;10.20;;;4.43;;
6852;SDS011;3465;42.144;24.722;2022-08-21T01:16:46;13.52;;;4.93;;
6852;SDS011;3465;42.144;24.722;2022-08-21T01:19:14;12.63;;;5.32;;
6852;SDS011;3465;42.144;24.722;2022-08-21T01:21:41;12.85;;;4.93;;
6852;SDS011;3465;42.144;24.722;2022-08-21T01:24:07;10.48;;;4.68;;
6852;SDS011;3465;42.144;24.722;2022-08-21T01:26:34;14.52;;;5.05;;
6852;SDS011;3465;42.144;24.722;2022-08-21T01:31:57;18.25;;;5.40;;
6852;SDS011;3465;42.144;24.722;2022-08-21T01:34:24;15.88;;;5.20;;
6852;SDS011;3465;42.144;24.722;2022-08-21T01:36:50;10.63;;;5.03;;
6852;SDS011;3465;42.144;24.722;2022-08-21T01:39:15;10.82;;;4.93;;
6852;SDS011;3465;42.144;24.722;2022-08-21T01:41:41;12.57;;;4.97;;
6852;SDS011;3465;42.144;24.722;2022-08-21T01:44:07;8.57;;;4.78;;
6852;SDS011;3465;42.144;24.722;2022-08-21T01:46:32;14.63;;;5.57;;
6852;SDS011;3465;42.144;24.722;2022-08-21T01:48:58;12.73;;;5.60;;
6852;SDS011;3465;42.144;24.722;2022-08-21T01:51:23;10.52;;;5.10;;
6852;SDS011;3465;42.144;24.722;2022-08-21T01:53:49;13.43;;;5.60;;
6852;SDS011;3465;42.144;24.722;2022-08-21T01:56:15;16.67;;;5.90;;
6852;SDS011;3465;42.144;24.722;2022-08-21T01:58:42;11.38;;;6.15;;
6852;SDS011;3465;42.144;24.722;2022-08-21T02:01:09;17.35;;;5.97;;
6852;SDS011;3465;42.144;24.722;2022-08-21T02:03:34;17.75;;;6.38;;
6852;SDS011;3465;42.144;24.722;2022-08-21T02:06:00;12.80;;;6.40;;
6852;SDS011;3465;42.144;24.722;2022-08-21T02:08:27;19.88;;;7.07;;
6852;SDS011;3465;42.144;24.722;2022-08-21T02:10:53;12.32;;;6.82;;
6852;SDS011;3465;42.144;24.722;2022-08-21T02:13:19;15.65;;;6.68;;
6852;SDS011;3465;42.144;24.722;2022-08-21T02:15:44;14.60;;;7.15;;
6852;SDS011;3465;42.144;24.722;2022-08-21T02:18:10;15.40;;;6.90;;
6852;SDS011;3465;42.144;24.722;2022-08-21T02:20:37;14.23;;;7.30;;
6852;SDS011;3465;42.144;24.722;2022-08-21T02:23:09;11.63;;;6.85;;
6852;SDS011;3465;42.144;24.722;2022-08-21T02:25:36;11.13;;;6.15;;
6852;SDS011;3465;42.144;24.722;2022-08-21T02:28:03;13.38;;;7.13;;
6852;SDS011;3465;42.144;24.722;2022-08-21T02:30:32;13.60;;;6.20;;
6852;SDS011;3465;42.144;24.722;2022-08-21T02:32:59;13.85;;;6.93;;
6852;SDS011;3465;42.144;24.722;2022-08-21T02:35:26;16.85;;;7.40;;
6852;SDS011;3465;42.144;24.722;2022-08-21T02:37:52;14.88;;;7.53;;
6852;SDS011;3465;42.144;24.722;2022-08-21T02:40:22;16.83;;;7.95;;
6852;SDS011;3465;42.144;24.722;2022-08-21T02:42:50;16.67;;;8.38;;
6852;SDS011;3465;42.144;24.722;2022-08-21T02:45:17;16.85;;;8.18;;
6852;SDS011;3465;42.144;24.722;2022-08-21T02:47:47;17.17;;;8.88;;
6852;SDS011;3465;42.144;24.722;2022-08-21T02:50:19;18.77;;;8.70;;
6852;SDS011;3465;42.144;24.722;2022-08-21T02:52:46;18.15;;;8.30;;
6852;SDS011;3465;42.144;24.722;2022-08-21T02:55:12;13.55;;;8.45;;
6852;SDS011;3465;42.144;24.722;2022-08-21T02:57:38;18.23;;;9.02;;
6852;SDS011;3465;42.144;24.722;2022-08-21T03:00:04;17.05;;;9.07;;
6852;SDS011;3465;42.144;24.722;2022-08-21T03:02:30;13.60;;;8.70;;
6852;SDS011;3465;42.144;24.722;2022-08-21T03:04:55;13.27;;;8.00;;
6852;SDS011;3465;42.144;24.722;2022-08-21T03:07:21;16.48;;;8.38;;
6852;SDS011;3465;42.144;24.722;2022-08-21T03:09:46;15.95;;;7.97;;
6852;SDS011;3465;42.144;24.722;2022-08-21T03:12:12;16.83;;;8.30;;
6852;SDS011;3465;42.144;24.722;2022-08-21T03:14:37;17.25;;;7.95;;
6852;SDS011;3465;42.144;24.722;2022-08-21T03:17:03;18.10;;;7.85;;
6852;SDS011;3465;42.144;24.722;2022-08-21T03:19:32;18.02;;;7.72;;
6852;SDS011;3465;42.144;24.722;2022-08-21T03:21:57;18.95;;;8.00;;
6852;SDS011;3465;42.144;24.722;2022-08-21T03:24:23;13.57;;;7.95;;
6852;SDS011;3465;42.144;24.722;2022-08-21T03:26:49;14.80;;;8.02;;
6852;SDS011;3465;42.144;24.722;2022-08-21T03:29:15;15.98;;;8.57;;
6852;SDS011;3465;42.144;24.722;2022-08-21T03:31:40;15.88;;;8.20;;
6852;SDS011;3465;42.144;24.722;2022-08-21T03:34:05;15.88;;;7.90;;
6852;SDS011;3465;42.144;24.722;2022-08-21T03:36:31;14.55;;;7.93;;
6852;SDS011;3465;42.144;24.722;2022-08-21T03:38:56;18.10;;;8.05;;
6852;SDS011;3465;42.144;24.722;2022-08-21T03:41:22;14.70;;;8.18;;
6852;SDS011;3465;42.144;24.722;2022-08-21T03:43:47;17.50;;;8.20;;
6852;SDS011;3465;42.144;24.722;2022-08-21T03:46:13;13.73;;;7.65;;
6852;SDS011;3465;42.144;24.722;2022-08-21T03:48:38;20.02;;;8.32;;
6852;SDS011;3465;42.144;24.722;2022-08-21T03:51:04;15.88;;;8.48;;
6852;SDS011;3465;42.144;24.722;2022-08-21T03:53:31;12.85;;;8.00;;
6852;SDS011;3465;42.144;24.722;2022-08-21T03:55:56;16.85;;;8.65;;
6852;SDS011;3465;42.144;24.722;2022-08-21T03:58:23;10.18;;;7.65;;
6852;SDS011;3465;42.144;24.722;2022-08-21T04:00:51;16.40;;;7.78;;
6852;SDS011;3465;42.144;24.722;2022-08-21T04:03:19;16.65;;;7.97;;
6852;SDS011;3465;42.144;24.722;2022-08-21T04:05:50;12.98;;;7.80;;
6852;SDS011;3465;42.144;24.722;2022-08-21T04:08:16;14.48;;;8.35;;
6852;SDS011;3465;42.144;24.722;2022-08-21T04:10:44;15.48;;;8.70;;
6852;SDS011;3465;42.144;24.722;2022-08-21T04:13:11;13.68;;;8.50;;
6852;SDS011;3465;42.144;24.722;2022-08-21T04:15:37;18.70;;;8.65;;
6852;SDS011;3465;42.144;24.722;2022-08-21T04:18:03;17.50;;;8.80;;
6852;SDS011;3465;42.144;24.722;2022-08-21T04:20:29;15.10;;;7.63;;
6852;SDS011;3465;42.144;24.722;2022-08-21T04:22:55;13.32;;;8.07;;
6852;SDS011;3465;42.144;24.722;2022-08-21T04:25:24;16.75;;;7.80;;
6852;SDS011;3465;42.144;24.722;2022-08-21T04:27:52;14.40;;;7.90;;
6852;SDS011;3465;42.144;24.722;2022-08-21T04:30:17;13.75;;;7.32;;
6852;SDS011;3465;42.144;24.722;2022-08-21T04:32:47;12.52;;;7.53;;
6852;SDS011;3465;42.144;24.722;2022-08-21T04:35:15;19.23;;;7.43;;
6852;SDS011;3465;42.144;24.722;2022-08-21T04:37:43;16.38;;;7.25;;
6852;SDS011;3465;42.144;24.722;2022-08-21T04:40:09;16.08;;;6.88;;
6852;SDS011;3465;42.144;24.722;2022-08-21T04:42:41;12.70;;;6.97;;
6852;SDS011;3465;42.144;24.722;2022-08-21T04:45:14;14.68;;;7.13;;
6852;SDS011;3465;42.144;24.722;2022-08-21T04:47:41;10.48;;;6.97;;
6852;SDS011;3465;42.144;24.722;2022-08-21T04:50:07;12.93;;;7.15;;
6852;SDS011;3465;42.144;24.722;2022-08-21T04:52:33;15.77;;;7.30;;
6852;SDS011;3465;42.144;24.722;2022-08-21T04:54:58;12.88;;;7.03;;
6852;SDS011;3465;42.144;24.722;2022-08-21T04:57:25;14.25;;;6.95;;
6852;SDS011;3465;42.144;24.722;2022-08-21T04:59:52;14.15;;;6.97;;
6852;SDS011;3465;42.144;24.722;2022-08-21T05:02:17;12.50;;;6.72;;
6852;SDS011;3465;42.144;24.722;2022-08-21T05:04:45;15.10;;;7.45;;
6852;SDS011;3465;42.144;24.722;2022-08-21T05:07:15;16.08;;;7.32;;
6852;SDS011;3465;42.144;24.722;2022-08-21T05:09:45;13.07;;;7.30;;
6852;SDS011;3465;42.144;24.722;2022-08-21T05:12:11;17.13;;;8.18;;
6852;SDS011;3465;42.144;24.722;2022-08-21T05:14:37;16.25;;;7.50;;
6852;SDS011;3465;42.144;24.722;2022-08-21T05:17:02;16.63;;;7.20;;
6852;SDS011;3465;42.144;24.722;2022-08-21T05:19:29;17.00;;;7.38;;
6852;SDS011;3465;42.144;24.722;2022-08-21T05:21:54;12.65;;;6.40;;
6852;SDS011;3465;42.144;24.722;2022-08-21T05:24:20;16.33;;;7.60;;
6852;SDS011;3465;42.144;24.722;2022-08-21T05:26:46;16.42;;;7.78;;
6852;SDS011;3465;42.144;24.722;2022-08-21T05:29:14;18.85;;;7.75;;
6852;SDS011;3465;42.144;24.722;2022-08-21T05:31:41;17.02;;;8.00;;
6852;SDS011;3465;42.144;24.722;2022-08-21T05:34:07;18.73;;;8.60;;
6852;SDS011;3465;42.144;24.722;2022-08-21T05:36:33;14.57;;;8.60;;
6852;SDS011;3465;42.144;24.722;2022-08-21T05:38:58;14.45;;;9.82;;
6852;SDS011;3465;42.144;24.722;2022-08-21T05:41:24;16.40;;;8.55;;
6852;SDS011;3465;42.144;24.722;2022-08-21T05:43:50;15.98;;;7.60;;
6852;SDS011;3465;42.144;24.722;2022-08-21T05:46:15;16.75;;;9.05;;
6852;SDS011;3465;42.144;24.722;2022-08-21T05:48:41;16.77;;;7.00;;
6852;SDS011;3465;42.144;24.722;2022-08-21T05:51:10;15.32;;;7.70;;
6852;SDS011;3465;42.144;24.722;2022-08-21T05:53:38;24.38;;;9.30;;
6852;SDS011;3465;42.144;24.722;2022-08-21T05:56:05;17.90;;;8.80;;
6852;SDS011;3465;42.144;24.722;2022-08-21T05:58:32;15.55;;;8.23;;
6852;SDS011;3465;42.144;24.722;2022-08-21T06:01:02;14.90;;;7.65;;
6852;SDS011;3465;42.144;24.722;2022-08-21T06:03:30;15.85;;;7.70;;
6852;SDS011;3465;42.144;24.722;2022-08-21T06:05:57;13.02;;;7.05;;
6852;SDS011;3465;42.144;24.722;2022-08-21T06:08:25;15.38;;;7.63;;
6852;SDS011;3465;42.144;24.722;2022-08-21T06:10:52;15.63;;;7.55;;
6852;SDS011;3465;42.144;24.722;2022-08-21T06:13:18;13.23;;;7.28;;
6852;SDS011;3465;42.144;24.722;2022-08-21T06:15:45;23.90;;;8.23;;
6852;SDS011;3465;42.144;24.722;2022-08-21T06:18:10;13.77;;;7.20;;
6852;SDS011;3465;42.144;24.722;2022-08-21T06:20:36;15.93;;;8.02;;
6852;SDS011;3465;42.144;24.722;2022-08-21T06:23:02;15.05;;;7.90;;
6852;SDS011;3465;42.144;24.722;2022-08-21T06:25:28;14.88;;;7.35;;
6852;SDS011;3465;42.144;24.722;2022-08-21T06:27:59;16.27;;;8.25;;
6852;SDS011;3465;42.144;24.722;2022-08-21T06:30:35;18.60;;;7.55;;
6852;SDS011;3465;42.144;24.722;2022-08-21T06:33:02;11.13;;;7.38;;
6852;SDS011;3465;42.144;24.722;2022-08-21T06:35:28;17.25;;;7.95;;
6852;SDS011;3465;42.144;24.722;2022-08-21T06:37:55;13.57;;;7.00;;
6852;SDS011;3465;42.144;24.722;2022-08-21T06:40:22;16.58;;;7.20;;
6852;SDS011;3465;42.144;24.722;2022-08-21T06:42:47;13.98;;;7.05;;
6852;SDS011;3465;42.144;24.722;2022-08-21T06:45:13;13.07;;;6.90;;
6852;SDS011;3465;42.144;24.722;2022-08-21T06:47:39;16.48;;;7.22;;
6852;SDS011;3465;42.144;24.722;2022-08-21T06:50:05;13.57;;;7.40;;
6852;SDS011;3465;42.144;24.722;2022-08-21T06:52:33;12.70;;;6.50;;
6852;SDS011;3465;42.144;24.722;2022-08-21T06:54:59;12.18;;;6.90;;
6852;SDS011;3465;42.144;24.722;2022-08-21T06:57:25;15.20;;;6.28;;
6852;SDS011;3465;42.144;24.722;2022-08-21T06:59:50;17.30;;;7.20;;
6852;SDS011;3465;42.144;24.722;2022-08-21T07:02:16;16.27;;;7.32;;
6852;SDS011;3465;42.144;24.722;2022-08-21T07:04:42;18.30;;;7.28;;
6852;SDS011;3465;42.144;24.722;2022-08-21T07:07:08;13.68;;;7.40;;
6852;SDS011;3465;42.144;24.722;2022-08-21T07:09:33;13.52;;;6.72;;
6852;SDS011;3465;42.144;24.722;2022-08-21T07:11:59;12.27;;;7.20;;
6852;SDS011;3465;42.144;24.722;2022-08-21T07:14:24;11.50;;;6.68;;
6852;SDS011;3465;42.144;24.722;2022-08-21T07:16:50;15.35;;;7.50;;
6852;SDS011;3465;42.144;24.722;2022-08-21T07:19:16;10.65;;;6.45;;
6852;SDS011;3465;42.144;24.722;2022-08-21T07:21:42;12.07;;;6.97;;
6852;SDS011;3465;42.144;24.722;2022-08-21T07:24:07;13.18;;;8.15;;
6852;SDS011;3465;42.144;24.722;2022-08-21T07:26:33;17.75;;;7.75;;
6852;SDS011;3465;42.144;24.722;2022-08-21T07:28:59;14.30;;;7.38;;
6852;SDS011;3465;42.144;24.722;2022-08-21T07:31:25;15.85;;;7.35;;
6852;SDS011;3465;42.144;24.722;2022-08-21T07:33:51;17.08;;;7.43;;
6852;SDS011;3465;42.144;24.722;2022-08-21T07:36:16;13.90;;;6.43;;
6852;SDS011;3465;42.144;24.722;2022-08-21T07:38:42;15.63;;;7.50;;
6852;SDS011;3465;42.144;24.722;2022-08-21T07:41:41;12.25;;;7.22;;
6852;SDS011;3465;42.144;24.722;2022-08-21T07:44:00;13.25;;;7.38;;
6852;SDS011;3465;42.144;24.722;2022-08-21T07:46:25;13.75;;;6.95;;
6852;SDS011;3465;42.144;24.722;2022-08-21T07:48:51;14.02;;;8.05;;
6852;SDS011;3465;42.144;24.722;2022-08-21T07:51:18;16.63;;;7.90;;
6852;SDS011;3465;42.144;24.722;2022-08-21T07:53:50;11.68;;;7.45;;
6852;SDS011;3465;42.144;24.722;2022-08-21T07:56:17;22.65;;;8.50;;
6852;SDS011;3465;42.144;24.722;2022-08-21T07:58:43;16.95;;;7.80;;
6852;SDS011;3465;42.144;24.722;2022-08-21T08:01:08;17.27;;;7.78;;
6852;SDS011;3465;42.144;24.722;2022-08-21T08:03:34;16.80;;;7.35;;
6852;SDS011;3465;42.144;24.722;2022-08-21T08:06:00;17.85;;;7.40;;
6852;SDS011;3465;42.144;24.722;2022-08-21T08:08:26;18.10;;;7.32;;
6852;SDS011;3465;42.144;24.722;2022-08-21T08:10:52;15.15;;;7.65;;
6852;SDS011;3465;42.144;24.722;2022-08-21T08:13:18;20.08;;;6.57;;
6852;SDS011;3465;42.144;24.722;2022-08-21T08:15:44;12.45;;;7.10;;
6852;SDS011;3465;42.144;24.722;2022-08-21T08:18:09;16.80;;;7.07;;
6852;SDS011;3465;42.144;24.722;2022-08-21T08:20:35;16.92;;;7.90;;
6852;SDS011;3465;42.144;24.722;2022-08-21T08:23:00;15.50;;;7.88;;
6852;SDS011;3465;42.144;24.722;2022-08-21T08:25:26;17.83;;;7.25;;
6852;SDS011;3465;42.144;24.722;2022-08-21T08:27:52;14.27;;;7.70;;
6852;SDS011;3465;42.144;24.722;2022-08-21T08:30:18;16.63;;;7.75;;
6852;SDS011;3465;42.144;24.722;2022-08-21T08:32:46;12.75;;;7.07;;
6852;SDS011;3465;42.144;24.722;2022-08-21T08:35:11;13.98;;;7.15;;
6852;SDS011;3465;42.144;24.722;2022-08-21T08:37:38;18.85;;;7.57;;
6852;SDS011;3465;42.144;24.722;2022-08-21T08:40:06;19.15;;;7.88;;
6852;SDS011;3465;42.144;24.722;2022-08-21T08:42:36;14.40;;;7.85;;
6852;SDS011;3465;42.144;24.722;2022-08-21T08:45:16;19.23;;;7.13;;
6852;SDS011;3465;42.144;24.722;2022-08-21T08:47:45;17.08;;;6.88;;
6852;SDS011;3465;42.144;24.722;2022-08-21T08:50:23;15.10;;;6.70;;
6852;SDS011;3465;42.144;24.722;2022-08-21T08:53:00;13.00;;;7.13;;
6852;SDS011;3465;42.144;24.722;2022-08-21T08:57:59;14.35;;;7.00;;
6852;SDS011;3465;42.144;24.722;2022-08-21T09:00:27;17.60;;;7.20;;
6852;SDS011;3465;42.144;24.722;2022-08-21T09:02:56;14.93;;;6.68;;
6852;SDS011;3465;42.144;24.722;2022-08-21T09:05:25;17.05;;;6.95;;
6852;SDS011;3465;42.144;24.722;2022-08-21T09:11:08;16.80;;;6.75;;
6852;SDS011;3465;42.144;24.722;2022-08-21T09:13:45;15.70;;;6.13;;
6852;SDS011;3465;42.144;24.722;2022-08-21T09:16:27;13.43;;;6.68;;
6852;SDS011;3465;42.144;24.722;2022-08-21T09:19:08;12.60;;;5.80;;
6852;SDS011;3465;42.144;24.722;2022-08-21T09:27:16;13.88;;;6.03;;
6852;SDS011;3465;42.144;24.722;2022-08-21T09:29:45;13.02;;;6.30;;
6852;SDS011;3465;42.144;24.722;2022-08-21T09:32:17;15.38;;;6.88;;
6852;SDS011;3465;42.144;24.722;2022-08-21T09:45:42;13.10;;;6.10;;
6852;SDS011;3465;42.144;24.722;2022-08-21T09:48:23;13.57;;;6.50;;
6852;SDS011;3465;42.144;24.722;2022-08-21T09:50:50;11.82;;;6.80;;
6852;SDS011;3465;42.144;24.722;2022-08-21T09:53:21;17.00;;;7.25;;
6852;SDS011;3465;42.144;24.722;2022-08-21T09:55:53;13.38;;;7.03;;
6852;SDS011;3465;42.144;24.722;2022-08-21T09:58:41;14.52;;;7.50;;
6852;SDS011;3465;42.144;24.722;2022-08-21T10:01:13;17.27;;;7.30;;
6852;SDS011;3465;42.144;24.722;2022-08-21T10:03:41;15.02;;;8.02;;
6852;SDS011;3465;42.144;24.722;2022-08-21T10:06:08;18.17;;;8.10;;
6852;SDS011;3465;42.144;24.722;2022-08-21T10:08:37;16.02;;;7.75;;
6852;SDS011;3465;42.144;24.722;2022-08-21T10:11:06;14.10;;;7.40;;
6852;SDS011;3465;42.144;24.722;2022-08-21T10:30:00;19.33;;;7.85;;
6852;SDS011;3465;42.144;24.722;2022-08-21T10:38:27;18.20;;;8.55;;
6852;SDS011;3465;42.144;24.722;2022-08-21T10:40:39;19.13;;;7.85;;
6852;SDS011;3465;42.144;24.722;2022-08-21T10:43:23;18.75;;;7.93;;
6852;SDS011;3465;42.144;24.722;2022-08-21T10:46:11;19.05;;;8.00;;
6852;SDS011;3465;42.144;24.722;2022-08-21T10:49:27;18.65;;;9.02;;
6852;SDS011;3465;42.144;24.722;2022-08-21T10:54:44;19.05;;;9.35;;
6852;SDS011;3465;42.144;24.722;2022-08-21T11:00:23;22.27;;;9.23;;
6852;SDS011;3465;42.144;24.722;2022-08-21T11:03:07;18.85;;;9.52;;
6852;SDS011;3465;42.144;24.722;2022-08-21T11:05:36;18.63;;;9.48;;
6852;SDS011;3465;42.144;24.722;2022-08-21T11:08:08;19.92;;;10.23;;
6852;SDS011;3465;42.144;24.722;2022-08-21T11:10:48;17.10;;;9.43;;
6852;SDS011;3465;42.144;24.722;2022-08-21T11:16:16;17.88;;;9.23;;
6852;SDS011;3465;42.144;24.722;2022-08-21T11:26:43;16.80;;;8.88;;
6852;SDS011;3465;42.144;24.722;2022-08-21T11:29:17;20.15;;;8.95;;
6852;SDS011;3465;42.144;24.722;2022-08-21T11:36:58;18.08;;;7.95;;
6852;SDS011;3465;42.144;24.722;2022-08-21T11:39:38;19.92;;;7.60;;
6852;SDS011;3465;42.144;24.722;2022-08-21T11:42:22;16.13;;;8.00;;
6852;SDS011;3465;42.144;24.722;2022-08-21T11:50:35;16.67;;;8.15;;
6852;SDS011;3465;42.144;24.722;2022-08-21T11:53:16;19.17;;;7.65;;
6852;SDS011;3465;42.144;24.722;2022-08-21T11:58:49;19.48;;;8.50;;
6852;SDS011;3465;42.144;24.722;2022-08-21T12:01:17;15.40;;;7.43;;
6852;SDS011;3465;42.144;24.722;2022-08-21T12:03:55;17.02;;;8.73;;
6852;SDS011;3465;42.144;24.722;2022-08-21T12:11:48;20.85;;;8.55;;
6852;SDS011;3465;42.144;24.722;2022-08-21T12:14:34;16.70;;;7.57;;
6852;SDS011;3465;42.144;24.722;2022-08-21T12:17:17;18.98;;;8.65;;
6852;SDS011;3465;42.144;24.722;2022-08-21T12:19:45;16.70;;;8.23;;
6852;SDS011;3465;42.144;24.722;2022-08-21T12:22:21;16.40;;;8.05;;
6852;SDS011;3465;42.144;24.722;2022-08-21T12:24:49;17.23;;;8.40;;
6852;SDS011;3465;42.144;24.722;2022-08-21T12:27:41;17.35;;;8.70;;
6852;SDS011;3465;42.144;24.722;2022-08-21T12:32:59;14.93;;;8.57;;
6852;SDS011;3465;42.144;24.722;2022-08-21T12:35:31;20.00;;;7.95;;
6852;SDS011;3465;42.144;24.722;2022-08-21T12:38:06;17.55;;;8.88;;
6852;SDS011;3465;42.144;24.722;2022-08-21T12:40:39;16.27;;;7.90;;
6852;SDS011;3465;42.144;24.722;2022-08-21T12:43:11;21.15;;;8.32;;
6852;SDS011;3465;42.144;24.722;2022-08-21T12:45:44;13.85;;;8.75;;
6852;SDS011;3465;42.144;24.722;2022-08-21T12:48:18;14.45;;;8.43;;
6852;SDS011;3465;42.144;24.722;2022-08-21T12:50:52;20.60;;;8.70;;
6852;SDS011;3465;42.144;24.722;2022-08-21T12:56:18;14.88;;;7.75;;
6852;SDS011;3465;42.144;24.722;2022-08-21T12:58:49;11.95;;;7.90;;
6852;SDS011;3465;42.144;24.722;2022-08-21T13:03:46;11.38;;;6.70;;
6852;SDS011;3465;42.144;24.722;2022-08-21T13:06:14;12.85;;;6.55;;
6852;SDS011;3465;42.144;24.722;2022-08-21T13:08:42;12.73;;;6.22;;
6852;SDS011;3465;42.144;24.722;2022-08-21T13:11:10;10.88;;;6.38;;
6852;SDS011;3465;42.144;24.722;2022-08-21T13:13:39;11.32;;;6.68;;
6852;SDS011;3465;42.144;24.722;2022-08-21T13:16:06;10.40;;;5.88;;
6852;SDS011;3465;42.144;24.722;2022-08-21T13:18:35;14.38;;;6.22;;
6852;SDS011;3465;42.144;24.722;2022-08-21T13:21:13;15.00;;;5.93;;
6852;SDS011;3465;42.144;24.722;2022-08-21T13:23:40;16.30;;;5.93;;
6852;SDS011;3465;42.144;24.722;2022-08-21T13:26:15;15.70;;;6.00;;
6852;SDS011;3465;42.144;24.722;2022-08-21T13:28:44;15.20;;;6.55;;
6852;SDS011;3465;42.144;24.722;2022-08-21T13:31:12;12.50;;;6.40;;
6852;SDS011;3465;42.144;24.722;2022-08-21T13:33:43;12.88;;;6.32;;
6852;SDS011;3465;42.144;24.722;2022-08-21T13:36:10;15.43;;;6.53;;
6852;SDS011;3465;42.144;24.722;2022-08-21T13:38:40;14.23;;;6.60;;
6852;SDS011;3465;42.144;24.722;2022-08-21T13:41:19;13.88;;;6.63;;
6852;SDS011;3465;42.144;24.722;2022-08-21T13:43:58;11.07;;;6.18;;
6852;SDS011;3465;42.144;24.722;2022-08-21T13:46:30;9.88;;;6.38;;
6852;SDS011;3465;42.144;24.722;2022-08-21T13:49:00;14.70;;;7.03;;
6852;SDS011;3465;42.144;24.722;2022-08-21T13:51:28;14.10;;;6.55;;
6852;SDS011;3465;42.144;24.722;2022-08-21T13:53:54;14.50;;;6.75;;
6852;SDS011;3465;42.144;24.722;2022-08-21T13:59:06;13.00;;;6.55;;
6852;SDS011;3465;42.144;24.722;2022-08-21T14:01:36;11.13;;;6.65;;
6852;SDS011;3465;42.144;24.722;2022-08-21T14:04:37;16.38;;;6.20;;
6852;SDS011;3465;42.144;24.722;2022-08-21T14:07:19;12.40;;;5.90;;
6852;SDS011;3465;42.144;24.722;2022-08-21T14:09:51;12.45;;;6.30;;
6852;SDS011;3465;42.144;24.722;2022-08-21T14:12:23;10.88;;;5.82;;
6852;SDS011;3465;42.144;24.722;2022-08-21T14:14:55;11.85;;;5.82;;
6852;SDS011;3465;42.144;24.722;2022-08-21T14:17:32;11.57;;;5.38;;
6852;SDS011;3465;42.144;24.722;2022-08-21T14:20:02;9.60;;;5.32;;
6852;SDS011;3465;42.144;24.722;2022-08-21T14:22:32;12.80;;;5.93;;
6852;SDS011;3465;42.144;24.722;2022-08-21T14:27:30;13.18;;;5.57;;
6852;SDS011;3465;42.144;24.722;2022-08-21T14:29:59;14.13;;;5.93;;
6852;SDS011;3465;42.144;24.722;2022-08-21T14:32:28;11.70;;;5.80;;
6852;SDS011;3465;42.144;24.722;2022-08-21T14:34:59;11.52;;;5.55;;
6852;SDS011;3465;42.144;24.722;2022-08-21T14:37:31;10.20;;;5.80;;
6852;SDS011;3465;42.144;24.722;2022-08-21T14:39:56;13.77;;;6.07;;
6852;SDS011;3465;42.144;24.722;2022-08-21T14:42:22;13.50;;;6.00;;
6852;SDS011;3465;42.144;24.722;2022-08-21T14:44:48;11.77;;;6.63;;
6852;SDS011;3465;42.144;24.722;2022-08-21T14:47:14;12.40;;;7.18;;
6852;SDS011;3465;42.144;24.722;2022-08-21T14:49:43;16.60;;;7.13;;
6852;SDS011;3465;42.144;24.722;2022-08-21T14:52:08;11.85;;;6.93;;
6852;SDS011;3465;42.144;24.722;2022-08-21T14:54:34;12.27;;;7.00;;
6852;SDS011;3465;42.144;24.722;2022-08-21T14:57:04;14.50;;;7.25;;
6852;SDS011;3465;42.144;24.722;2022-08-21T14:59:34;11.50;;;6.90;;
6852;SDS011;3465;42.144;24.722;2022-08-21T15:02:00;16.38;;;7.57;;
6852;SDS011;3465;42.144;24.722;2022-08-21T15:04:29;14.38;;;7.40;;
6852;SDS011;3465;42.144;24.722;2022-08-21T15:06:54;16.73;;;7.57;;
6852;SDS011;3465;42.144;24.722;2022-08-21T15:09:20;17.75;;;7.95;;
6852;SDS011;3465;42.144;24.722;2022-08-21T15:11:46;15.23;;;5.88;;
6852;SDS011;3465;42.144;24.722;2022-08-21T15:14:13;8.85;;;5.35;;
6852;SDS011;3465;42.144;24.722;2022-08-21T15:16:46;8.95;;;5.13;;
6852;SDS011;3465;42.144;24.722;2022-08-21T15:19:13;13.95;;;5.28;;
6852;SDS011;3465;42.144;24.722;2022-08-21T15:21:38;12.35;;;5.30;;
6852;SDS011;3465;42.144;24.722;2022-08-21T15:24:04;11.63;;;5.40;;
6852;SDS011;3465;42.144;24.722;2022-08-21T15:26:29;8.23;;;4.55;;
6852;SDS011;3465;42.144;24.722;2022-08-21T15:28:55;15.32;;;5.00;;
6852;SDS011;3465;42.144;24.722;2022-08-21T15:31:20;8.77;;;4.80;;
6852;SDS011;3465;42.144;24.722;2022-08-21T15:33:46;14.80;;;5.75;;
6852;SDS011;3465;42.144;24.722;2022-08-21T15:36:12;16.27;;;5.72;;
6852;SDS011;3465;42.144;24.722;2022-08-21T15:38:37;11.40;;;4.85;;
6852;SDS011;3465;42.144;24.722;2022-08-21T15:41:03;8.38;;;4.63;;
6852;SDS011;3465;42.144;24.722;2022-08-21T15:43:31;11.57;;;5.78;;
6852;SDS011;3465;42.144;24.722;2022-08-21T15:46:19;15.80;;;6.30;;
6852;SDS011;3465;42.144;24.722;2022-08-21T15:48:46;12.00;;;5.60;;
6852;SDS011;3465;42.144;24.722;2022-08-21T15:51:12;13.55;;;5.40;;
6852;SDS011;3465;42.144;24.722;2022-08-21T15:53:39;17.58;;;7.53;;
6852;SDS011;3465;42.144;24.722;2022-08-21T15:56:06;20.77;;;6.80;;
6852;SDS011;3465;42.144;24.722;2022-08-21T15:58:39;15.20;;;7.78;;
6852;SDS011;3465;42.144;24.722;2022-08-21T16:01:05;20.75;;;6.32;;
6852;SDS011;3465;42.144;24.722;2022-08-21T16:03:30;15.60;;;6.60;;
6852;SDS011;3465;42.144;24.722;2022-08-21T16:05:56;23.17;;;9.07;;
6852;SDS011;3465;42.144;24.722;2022-08-21T16:08:22;17.90;;;6.40;;
6852;SDS011;3465;42.144;24.722;2022-08-21T16:10:49;15.13;;;6.82;;
6852;SDS011;3465;42.144;24.722;2022-08-21T16:13:18;26.70;;;6.88;;
6852;SDS011;3465;42.144;24.722;2022-08-21T16:16:00;17.58;;;7.13;;
6852;SDS011;3465;42.144;24.722;2022-08-21T16:18:26;15.88;;;6.60;;
6852;SDS011;3465;42.144;24.722;2022-08-21T16:20:51;13.50;;;5.63;;
6852;SDS011;3465;42.144;24.722;2022-08-21T16:23:17;10.73;;;5.57;;
6852;SDS011;3465;42.144;24.722;2022-08-21T16:25:43;18.08;;;5.60;;
6852;SDS011;3465;42.144;24.722;2022-08-21T16:28:10;11.95;;;5.57;;
6852;SDS011;3465;42.144;24.722;2022-08-21T16:30:38;14.18;;;5.85;;
6852;SDS011;3465;42.144;24.722;2022-08-21T16:33:04;9.05;;;5.25;;